sensor_id;sensor_type;location;lat;lon;timestamp;P1;durP1;ratioP1;P2;durP2;ratioP2
73902;SDS011;62238;48.722;9.270;2022-08-04T00:00:14;4.27;;;2.00;;
73902;SDS011;62238;48.722;9.270;2022-08-04T00:11:13;3.47;;;2.20;;
73902;SDS011;62238;48.722;9.270;2022-08-04T00:13:41;3.42;;;2.20;;
73902;SDS011;62238;48.722;9.270;2022-08-04T00:16:09;3.90;;;2.30;;
73902;SDS011;62238;48.722;9.270;2022-08-04T00:18:40;3.67;;;2.30;;
73902;SDS011;62238;48.722;9.270;2022-08-04T00:21:10;3.80;;;2.17;;
73902;SDS011;62238;48.722;9.270;2022-08-04T00:23:37;4.20;;;2.50;;
73902;SDS011;62238;48.722;9.270;2022-08-04T00:26:03;5.18;;;2.50;;
73902;SDS011;62238;48.722;9.270;2022-08-04T00:28:28;4.07;;;2.30;;
73902;SDS011;62238;48.722;9.270;2022-08-04T00:30:54;3.85;;;2.20;;
73902;SDS011;62238;48.722;9.270;2022-08-04T00:33:20;4.87;;;2.30;;
73902;SDS011;62238;48.722;9.270;2022-08-04T00:35:46;3.35;;;2.13;;
73902;SDS011;62238;48.722;9.270;2022-08-04T00:38:14;3.58;;;2.10;;
73902;SDS011;62238;48.722;9.270;2022-08-04T00:40:54;4.78;;;2.17;;
73902;SDS011;62238;48.722;9.270;2022-08-04T00:43:31;3.90;;;2.10;;
73902;SDS011;62238;48.722;9.270;2022-08-04T00:49:02;4.68;;;2.45;;
73902;SDS011;62238;48.722;9.270;2022-08-04T00:57:12;2.77;;;1.90;;
73902;SDS011;62238;48.722;9.270;2022-08-04T01:05:17;4.40;;;2.20;;
73902;SDS011;62238;48.722;9.270;2022-08-04T01:07:56;3.50;;;2.20;;
73902;SDS011;62238;48.722;9.270;2022-08-04T01:10:40;4.60;;;2.10;;
73902;SDS011;62238;48.722;9.270;2022-08-04T01:16:04;3.55;;;2.10;;
73902;SDS011;62238;48.722;9.270;2022-08-04T01:18:45;3.15;;;2.08;;
73902;SDS011;62238;48.722;9.270;2022-08-04T01:29:37;3.80;;;2.20;;
73902;SDS011;62238;48.722;9.270;2022-08-04T01:32:13;5.10;;;2.20;;
73902;SDS011;62238;48.722;9.270;2022-08-04T01:34:47;3.78;;;2.10;;
73902;SDS011;62238;48.722;9.270;2022-08-04T01:37:39;3.22;;;1.90;;
73902;SDS011;62238;48.722;9.270;2022-08-04T01:40:08;3.37;;;1.90;;
73902;SDS011;62238;48.722;9.270;2022-08-04T01:42:34;5.20;;;2.08;;
73902;SDS011;62238;48.722;9.270;2022-08-04T01:45:18;2.70;;;1.90;;
73902;SDS011;62238;48.722;9.270;2022-08-04T01:47:50;3.03;;;2.00;;
73902;SDS011;62238;48.722;9.270;2022-08-04T01:50:17;3.92;;;1.98;;
73902;SDS011;62238;48.722;9.270;2022-08-04T01:52:43;2.85;;;2.00;;
73902;SDS011;62238;48.722;9.270;2022-08-04T01:55:10;4.75;;;1.88;;
73902;SDS011;62238;48.722;9.270;2022-08-04T01:57:40;3.50;;;1.90;;
73902;SDS011;62238;48.722;9.270;2022-08-04T02:00:10;3.27;;;2.17;;
73902;SDS011;62238;48.722;9.270;2022-08-04T02:02:40;2.90;;;2.10;;
73902;SDS011;62238;48.722;9.270;2022-08-04T02:05:08;3.88;;;1.90;;
73902;SDS011;62238;48.722;9.270;2022-08-04T02:07:39;3.07;;;2.00;;
73902;SDS011;62238;48.722;9.270;2022-08-04T02:10:28;2.92;;;1.90;;
73902;SDS011;62238;48.722;9.270;2022-08-04T02:15:54;3.60;;;2.00;;
73902;SDS011;62238;48.722;9.270;2022-08-04T02:18:30;5.35;;;2.00;;
73902;SDS011;62238;48.722;9.270;2022-08-04T02:20:58;3.73;;;1.90;;
73902;SDS011;62238;48.722;9.270;2022-08-04T02:26:00;2.70;;;1.88;;
73902;SDS011;62238;48.722;9.270;2022-08-04T02:28:29;3.17;;;1.85;;
73902;SDS011;62238;48.722;9.270;2022-08-04T02:34:08;5.57;;;1.90;;
73902;SDS011;62238;48.722;9.270;2022-08-04T02:36:39;4.07;;;2.10;;
73902;SDS011;62238;48.722;9.270;2022-08-04T02:39:06;2.65;;;1.80;;
73902;SDS011;62238;48.722;9.270;2022-08-04T02:41:33;2.92;;;1.73;;
73902;SDS011;62238;48.722;9.270;2022-08-04T02:44:01;3.97;;;1.80;;
73902;SDS011;62238;48.722;9.270;2022-08-04T02:46:31;2.30;;;1.80;;
73902;SDS011;62238;48.722;9.270;2022-08-04T02:48:58;4.78;;;1.90;;
73902;SDS011;62238;48.722;9.270;2022-08-04T02:51:27;4.97;;;2.00;;
73902;SDS011;62238;48.722;9.270;2022-08-04T02:53:55;3.45;;;1.80;;
73902;SDS011;62238;48.722;9.270;2022-08-04T02:56:23;3.15;;;1.90;;
73902;SDS011;62238;48.722;9.270;2022-08-04T02:58:56;4.27;;;1.70;;
73902;SDS011;62238;48.722;9.270;2022-08-04T03:01:23;3.40;;;1.67;;
73902;SDS011;62238;48.722;9.270;2022-08-04T03:03:50;5.68;;;1.90;;
73902;SDS011;62238;48.722;9.270;2022-08-04T03:06:47;3.43;;;1.70;;
73902;SDS011;62238;48.722;9.270;2022-08-04T03:53:08;4.55;;;2.10;;
73902;SDS011;62238;48.722;9.270;2022-08-04T04:01:17;3.47;;;1.90;;
73902;SDS011;62238;48.722;9.270;2022-08-04T04:12:41;2.90;;;1.88;;
73902;SDS011;62238;48.722;9.270;2022-08-04T04:15:19;2.87;;;1.70;;
73902;SDS011;62238;48.722;9.270;2022-08-04T04:28:57;2.87;;;1.60;;
73902;SDS011;62238;48.722;9.270;2022-08-04T04:37:26;3.60;;;2.03;;
73902;SDS011;62238;48.722;9.270;2022-08-04T04:56:16;3.97;;;2.07;;
73902;SDS011;62238;48.722;9.270;2022-08-04T04:59:03;2.90;;;2.00;;
73902;SDS011;62238;48.722;9.270;2022-08-04T05:01:50;3.80;;;2.00;;
73902;SDS011;62238;48.722;9.270;2022-08-04T05:15:16;4.97;;;2.33;;
73902;SDS011;62238;48.722;9.270;2022-08-04T05:17:44;4.95;;;2.22;;
73902;SDS011;62238;48.722;9.270;2022-08-04T05:20:36;3.63;;;2.17;;
73902;SDS011;62238;48.722;9.270;2022-08-04T05:23:02;5.93;;;2.40;;
73902;SDS011;62238;48.722;9.270;2022-08-04T05:25:33;5.00;;;2.30;;
73902;SDS011;62238;48.722;9.270;2022-08-04T05:30:50;4.57;;;2.08;;
73902;SDS011;62238;48.722;9.270;2022-08-04T05:33:21;4.80;;;2.08;;
73902;SDS011;62238;48.722;9.270;2022-08-04T05:35:57;5.73;;;2.20;;
73902;SDS011;62238;48.722;9.270;2022-08-04T05:38:25;5.18;;;2.40;;
73902;SDS011;62238;48.722;9.270;2022-08-04T05:40:51;3.78;;;1.80;;
73902;SDS011;62238;48.722;9.270;2022-08-04T05:43:18;8.07;;;2.08;;
73902;SDS011;62238;48.722;9.270;2022-08-04T05:45:43;4.23;;;2.30;;
73902;SDS011;62238;48.722;9.270;2022-08-04T05:48:12;3.08;;;1.92;;
73902;SDS011;62238;48.722;9.270;2022-08-04T05:50:38;4.15;;;2.35;;
73902;SDS011;62238;48.722;9.270;2022-08-04T05:53:04;4.37;;;2.00;;
73902;SDS011;62238;48.722;9.270;2022-08-04T05:55:29;7.35;;;2.22;;
73902;SDS011;62238;48.722;9.270;2022-08-04T05:57:56;4.80;;;2.08;;
73902;SDS011;62238;48.722;9.270;2022-08-04T06:00:23;3.38;;;2.10;;
73902;SDS011;62238;48.722;9.270;2022-08-04T06:02:49;4.15;;;2.05;;
73902;SDS011;62238;48.722;9.270;2022-08-04T06:05:16;3.90;;;2.10;;
73902;SDS011;62238;48.722;9.270;2022-08-04T06:07:44;4.82;;;2.35;;
73902;SDS011;62238;48.722;9.270;2022-08-04T06:10:10;3.33;;;2.20;;
73902;SDS011;62238;48.722;9.270;2022-08-04T06:12:37;3.97;;;2.27;;
73902;SDS011;62238;48.722;9.270;2022-08-04T06:15:06;5.45;;;2.10;;
73902;SDS011;62238;48.722;9.270;2022-08-04T06:17:33;5.13;;;2.22;;
73902;SDS011;62238;48.722;9.270;2022-08-04T06:20:02;4.68;;;2.30;;
73902;SDS011;62238;48.722;9.270;2022-08-04T06:22:28;4.18;;;2.13;;
73902;SDS011;62238;48.722;9.270;2022-08-04T06:24:54;5.53;;;2.20;;
73902;SDS011;62238;48.722;9.270;2022-08-04T06:27:20;4.35;;;2.30;;
73902;SDS011;62238;48.722;9.270;2022-08-04T06:29:47;4.43;;;2.10;;
73902;SDS011;62238;48.722;9.270;2022-08-04T06:32:13;4.32;;;2.10;;
73902;SDS011;62238;48.722;9.270;2022-08-04T06:34:54;6.35;;;2.03;;
73902;SDS011;62238;48.722;9.270;2022-08-04T06:37:22;2.87;;;1.77;;
73902;SDS011;62238;48.722;9.270;2022-08-04T06:39:48;5.75;;;2.33;;
73902;SDS011;62238;48.722;9.270;2022-08-04T06:42:13;4.38;;;2.25;;
73902;SDS011;62238;48.722;9.270;2022-08-04T06:44:41;3.95;;;2.17;;
73902;SDS011;62238;48.722;9.270;2022-08-04T06:47:08;6.13;;;2.10;;
73902;SDS011;62238;48.722;9.270;2022-08-04T06:49:34;3.58;;;2.08;;
73902;SDS011;62238;48.722;9.270;2022-08-04T06:52:02;6.00;;;2.42;;
73902;SDS011;62238;48.722;9.270;2022-08-04T06:54:27;3.90;;;2.15;;
73902;SDS011;62238;48.722;9.270;2022-08-04T06:56:53;4.67;;;2.00;;
73902;SDS011;62238;48.722;9.270;2022-08-04T06:59:19;6.15;;;2.20;;
73902;SDS011;62238;48.722;9.270;2022-08-04T07:01:46;3.70;;;2.20;;
73902;SDS011;62238;48.722;9.270;2022-08-04T07:04:12;4.87;;;2.07;;
73902;SDS011;62238;48.722;9.270;2022-08-04T07:06:37;3.42;;;2.15;;
73902;SDS011;62238;48.722;9.270;2022-08-04T07:09:04;3.67;;;2.07;;
73902;SDS011;62238;48.722;9.270;2022-08-04T07:11:30;4.32;;;2.45;;
73902;SDS011;62238;48.722;9.270;2022-08-04T07:13:57;5.10;;;2.50;;
73902;SDS011;62238;48.722;9.270;2022-08-04T07:16:23;4.00;;;2.40;;
73902;SDS011;62238;48.722;9.270;2022-08-04T07:18:49;5.65;;;2.20;;
73902;SDS011;62238;48.722;9.270;2022-08-04T07:21:21;3.20;;;2.03;;
73902;SDS011;62238;48.722;9.270;2022-08-04T07:23:47;3.10;;;2.17;;
73902;SDS011;62238;48.722;9.270;2022-08-04T07:26:16;4.53;;;2.47;;
73902;SDS011;62238;48.722;9.270;2022-08-04T07:28:43;4.40;;;2.10;;
73902;SDS011;62238;48.722;9.270;2022-08-04T07:31:10;4.97;;;2.10;;
73902;SDS011;62238;48.722;9.270;2022-08-04T07:33:37;6.18;;;2.25;;
73902;SDS011;62238;48.722;9.270;2022-08-04T07:36:05;5.03;;;2.03;;
73902;SDS011;62238;48.722;9.270;2022-08-04T07:38:30;7.00;;;2.30;;
73902;SDS011;62238;48.722;9.270;2022-08-04T07:40:56;4.95;;;2.10;;
73902;SDS011;62238;48.722;9.270;2022-08-04T07:43:22;4.82;;;2.08;;
73902;SDS011;62238;48.722;9.270;2022-08-04T07:45:47;4.30;;;2.30;;
73902;SDS011;62238;48.722;9.270;2022-08-04T07:48:13;6.77;;;2.50;;
73902;SDS011;62238;48.722;9.270;2022-08-04T07:50:41;4.22;;;2.10;;
73902;SDS011;62238;48.722;9.270;2022-08-04T07:53:07;5.45;;;2.22;;
73902;SDS011;62238;48.722;9.270;2022-08-04T07:55:33;3.92;;;2.30;;
73902;SDS011;62238;48.722;9.270;2022-08-04T07:57:59;4.17;;;2.17;;
73902;SDS011;62238;48.722;9.270;2022-08-04T08:00:24;4.70;;;2.20;;
73902;SDS011;62238;48.722;9.270;2022-08-04T08:02:51;5.65;;;2.60;;
73902;SDS011;62238;48.722;9.270;2022-08-04T08:05:17;3.50;;;2.10;;
73902;SDS011;62238;48.722;9.270;2022-08-04T08:07:47;5.03;;;2.30;;
73902;SDS011;62238;48.722;9.270;2022-08-04T08:10:13;5.07;;;2.25;;
73902;SDS011;62238;48.722;9.270;2022-08-04T08:12:40;2.72;;;1.92;;
73902;SDS011;62238;48.722;9.270;2022-08-04T08:15:06;4.95;;;2.30;;
73902;SDS011;62238;48.722;9.270;2022-08-04T08:17:33;4.22;;;2.20;;
73902;SDS011;62238;48.722;9.270;2022-08-04T08:19:59;3.93;;;2.40;;
73902;SDS011;62238;48.722;9.270;2022-08-04T08:22:25;3.53;;;2.40;;
73902;SDS011;62238;48.722;9.270;2022-08-04T08:24:50;6.90;;;2.50;;
73902;SDS011;62238;48.722;9.270;2022-08-04T08:27:16;5.15;;;2.35;;
73902;SDS011;62238;48.722;9.270;2022-08-04T08:29:41;5.20;;;2.20;;
73902;SDS011;62238;48.722;9.270;2022-08-04T08:32:08;4.88;;;2.28;;
73902;SDS011;62238;48.722;9.270;2022-08-04T08:34:37;4.63;;;2.20;;
73902;SDS011;62238;48.722;9.270;2022-08-04T08:37:04;4.53;;;2.30;;
73902;SDS011;62238;48.722;9.270;2022-08-04T08:39:38;5.53;;;2.40;;
73902;SDS011;62238;48.722;9.270;2022-08-04T08:44:55;4.28;;;2.20;;
73902;SDS011;62238;48.722;9.270;2022-08-04T08:47:59;4.55;;;2.25;;
73902;SDS011;62238;48.722;9.270;2022-08-04T08:50:31;2.97;;;2.30;;
73902;SDS011;62238;48.722;9.270;2022-08-04T08:53:12;4.20;;;2.20;;
73902;SDS011;62238;48.722;9.270;2022-08-04T08:58:34;3.72;;;2.40;;
73902;SDS011;62238;48.722;9.270;2022-08-04T09:01:11;4.53;;;2.20;;
73902;SDS011;62238;48.722;9.270;2022-08-04T09:06:55;3.28;;;2.10;;
73902;SDS011;62238;48.722;9.270;2022-08-04T09:09:30;3.90;;;2.15;;
73902;SDS011;62238;48.722;9.270;2022-08-04T09:12:32;3.38;;;1.95;;
73902;SDS011;62238;48.722;9.270;2022-08-04T09:15:16;5.57;;;2.10;;
73902;SDS011;62238;48.722;9.270;2022-08-04T09:17:47;3.30;;;1.83;;
73902;SDS011;62238;48.722;9.270;2022-08-04T09:20:30;3.70;;;2.17;;
73902;SDS011;62238;48.722;9.270;2022-08-04T09:26:22;5.50;;;2.10;;
73902;SDS011;62238;48.722;9.270;2022-08-04T09:31:18;6.00;;;2.10;;
73902;SDS011;62238;48.722;9.270;2022-08-04T09:34:22;7.38;;;2.42;;
73902;SDS011;62238;48.722;9.270;2022-08-04T09:36:45;3.45;;;1.90;;
73902;SDS011;62238;48.722;9.270;2022-08-04T09:39:39;6.35;;;2.40;;
73902;SDS011;62238;48.722;9.270;2022-08-04T09:42:12;4.65;;;2.40;;
73902;SDS011;62238;48.722;9.270;2022-08-04T09:48:07;4.03;;;2.20;;
73902;SDS011;62238;48.722;9.270;2022-08-04T09:50:36;4.22;;;2.10;;
73902;SDS011;62238;48.722;9.270;2022-08-04T09:56:09;5.78;;;2.42;;
73902;SDS011;62238;48.722;9.270;2022-08-04T10:01:18;6.25;;;2.50;;
73902;SDS011;62238;48.722;9.270;2022-08-04T10:03:47;3.90;;;2.25;;
73902;SDS011;62238;48.722;9.270;2022-08-04T10:14:09;3.65;;;2.15;;
73902;SDS011;62238;48.722;9.270;2022-08-04T10:16:56;5.82;;;2.53;;
73902;SDS011;62238;48.722;9.270;2022-08-04T10:19:33;4.00;;;2.20;;
73902;SDS011;62238;48.722;9.270;2022-08-04T10:27:33;3.22;;;2.20;;
73902;SDS011;62238;48.722;9.270;2022-08-04T10:30:06;4.50;;;2.40;;
73902;SDS011;62238;48.722;9.270;2022-08-04T10:32:48;4.25;;;2.45;;
73902;SDS011;62238;48.722;9.270;2022-08-04T10:35:18;4.15;;;2.35;;
73902;SDS011;62238;48.722;9.270;2022-08-04T10:37:58;5.87;;;2.60;;
73902;SDS011;62238;48.722;9.270;2022-08-04T10:40:43;4.03;;;2.53;;
73902;SDS011;62238;48.722;9.270;2022-08-04T10:45:43;3.15;;;2.10;;
73902;SDS011;62238;48.722;9.270;2022-08-04T10:48:15;5.07;;;2.30;;
73902;SDS011;62238;48.722;9.270;2022-08-04T10:50:52;3.13;;;2.07;;
73902;SDS011;62238;48.722;9.270;2022-08-04T10:53:24;3.67;;;2.15;;
73902;SDS011;62238;48.722;9.270;2022-08-04T10:58:35;4.18;;;2.10;;
73902;SDS011;62238;48.722;9.270;2022-08-04T11:01:10;4.10;;;2.17;;
73902;SDS011;62238;48.722;9.270;2022-08-04T11:03:41;3.70;;;2.10;;
73902;SDS011;62238;48.722;9.270;2022-08-04T11:06:12;4.18;;;2.13;;
73902;SDS011;62238;48.722;9.270;2022-08-04T11:08:47;3.03;;;2.05;;
73902;SDS011;62238;48.722;9.270;2022-08-04T11:13:46;3.75;;;2.10;;
73902;SDS011;62238;48.722;9.270;2022-08-04T11:16:18;3.77;;;1.80;;
73902;SDS011;62238;48.722;9.270;2022-08-04T11:18:56;4.72;;;1.80;;
73902;SDS011;62238;48.722;9.270;2022-08-04T11:21:33;2.25;;;1.63;;
73902;SDS011;62238;48.722;9.270;2022-08-04T11:24:04;2.40;;;1.75;;
73902;SDS011;62238;48.722;9.270;2022-08-04T11:32:07;3.17;;;1.70;;
73902;SDS011;62238;48.722;9.270;2022-08-04T11:34:36;2.53;;;1.50;;
73902;SDS011;62238;48.722;9.270;2022-08-04T11:37:10;3.25;;;1.60;;
73902;SDS011;62238;48.722;9.270;2022-08-04T11:39:49;2.88;;;2.03;;
73902;SDS011;62238;48.722;9.270;2022-08-04T11:42:21;1.97;;;1.60;;
73902;SDS011;62238;48.722;9.270;2022-08-04T11:45:01;2.72;;;1.80;;
73902;SDS011;62238;48.722;9.270;2022-08-04T11:47:33;3.83;;;1.45;;
73902;SDS011;62238;48.722;9.270;2022-08-04T11:50:10;4.15;;;2.03;;
73902;SDS011;62238;48.722;9.270;2022-08-04T11:52:41;2.95;;;1.90;;
73902;SDS011;62238;48.722;9.270;2022-08-04T11:55:10;3.73;;;1.70;;
73902;SDS011;62238;48.722;9.270;2022-08-04T11:57:38;5.72;;;1.83;;
73902;SDS011;62238;48.722;9.270;2022-08-04T12:00:04;2.88;;;1.52;;
73902;SDS011;62238;48.722;9.270;2022-08-04T12:12:10;5.50;;;1.88;;
73902;SDS011;62238;48.722;9.270;2022-08-04T12:14:20;4.35;;;1.67;;
73902;SDS011;62238;48.722;9.270;2022-08-04T12:17:02;3.10;;;1.90;;
73902;SDS011;62238;48.722;9.270;2022-08-04T12:21:57;3.03;;;1.88;;
73902;SDS011;62238;48.722;9.270;2022-08-04T12:24:31;2.97;;;1.90;;
73902;SDS011;62238;48.722;9.270;2022-08-04T12:27:04;3.53;;;1.80;;
73902;SDS011;62238;48.722;9.270;2022-08-04T12:29:35;2.20;;;1.73;;
73902;SDS011;62238;48.722;9.270;2022-08-04T12:32:21;3.47;;;2.00;;
73902;SDS011;62238;48.722;9.270;2022-08-04T12:34:57;2.80;;;1.70;;
73902;SDS011;62238;48.722;9.270;2022-08-04T12:37:32;2.40;;;1.60;;
73902;SDS011;62238;48.722;9.270;2022-08-04T12:40:05;2.53;;;1.50;;
73902;SDS011;62238;48.722;9.270;2022-08-04T12:45:07;3.07;;;2.00;;
73902;SDS011;62238;48.722;9.270;2022-08-04T12:47:33;3.90;;;1.70;;
73902;SDS011;62238;48.722;9.270;2022-08-04T12:50:00;3.70;;;2.13;;
73902;SDS011;62238;48.722;9.270;2022-08-04T12:52:27;3.53;;;2.10;;
73902;SDS011;62238;48.722;9.270;2022-08-04T12:54:57;3.33;;;1.77;;
73902;SDS011;62238;48.722;9.270;2022-08-04T12:57:23;3.70;;;1.83;;
73902;SDS011;62238;48.722;9.270;2022-08-04T12:59:49;3.50;;;1.85;;
73902;SDS011;62238;48.722;9.270;2022-08-04T13:02:23;4.37;;;2.20;;
73902;SDS011;62238;48.722;9.270;2022-08-04T13:04:57;3.20;;;1.80;;
73902;SDS011;62238;48.722;9.270;2022-08-04T13:07:27;2.80;;;1.50;;
73902;SDS011;62238;48.722;9.270;2022-08-04T13:10:04;2.67;;;1.90;;
73902;SDS011;62238;48.722;9.270;2022-08-04T13:12:39;3.30;;;1.98;;
73902;SDS011;62238;48.722;9.270;2022-08-04T13:15:16;2.50;;;1.70;;
73902;SDS011;62238;48.722;9.270;2022-08-04T13:20:35;3.42;;;1.70;;
73902;SDS011;62238;48.722;9.270;2022-08-04T13:23:05;4.43;;;1.83;;
73902;SDS011;62238;48.722;9.270;2022-08-04T13:25:39;5.30;;;2.10;;
73902;SDS011;62238;48.722;9.270;2022-08-04T13:28:07;2.83;;;2.03;;
73902;SDS011;62238;48.722;9.270;2022-08-04T13:30:38;4.57;;;2.10;;
73902;SDS011;62238;48.722;9.270;2022-08-04T13:33:03;3.40;;;2.00;;
73902;SDS011;62238;48.722;9.270;2022-08-04T13:35:29;2.40;;;1.83;;
73902;SDS011;62238;48.722;9.270;2022-08-04T13:37:55;3.88;;;1.80;;
73902;SDS011;62238;48.722;9.270;2022-08-04T13:40:22;2.55;;;2.00;;
73902;SDS011;62238;48.722;9.270;2022-08-04T13:42:50;2.40;;;1.85;;
73902;SDS011;62238;48.722;9.270;2022-08-04T13:45:19;2.33;;;1.80;;
73902;SDS011;62238;48.722;9.270;2022-08-04T13:47:45;3.25;;;1.92;;
73902;SDS011;62238;48.722;9.270;2022-08-04T13:52:47;3.38;;;1.80;;
73902;SDS011;62238;48.722;9.270;2022-08-04T13:55:20;2.97;;;1.88;;
73902;SDS011;62238;48.722;9.270;2022-08-04T13:57:58;2.83;;;2.03;;
73902;SDS011;62238;48.722;9.270;2022-08-04T14:00:36;3.43;;;2.00;;
73902;SDS011;62238;48.722;9.270;2022-08-04T14:03:05;2.90;;;2.00;;
73902;SDS011;62238;48.722;9.270;2022-08-04T14:05:31;4.72;;;2.00;;
73902;SDS011;62238;48.722;9.270;2022-08-04T14:08:04;2.20;;;1.90;;
73902;SDS011;62238;48.722;9.270;2022-08-04T14:10:36;2.97;;;2.00;;
73902;SDS011;62238;48.722;9.270;2022-08-04T14:13:02;4.37;;;2.10;;
73902;SDS011;62238;48.722;9.270;2022-08-04T14:15:39;3.28;;;1.77;;
73902;SDS011;62238;48.722;9.270;2022-08-04T14:18:22;4.63;;;2.22;;
73902;SDS011;62238;48.722;9.270;2022-08-04T14:20:59;4.07;;;2.17;;
73902;SDS011;62238;48.722;9.270;2022-08-04T14:23:36;3.13;;;2.10;;
73902;SDS011;62238;48.722;9.270;2022-08-04T14:28:41;3.67;;;2.00;;
73902;SDS011;62238;48.722;9.270;2022-08-04T14:31:08;3.00;;;2.00;;
73902;SDS011;62238;48.722;9.270;2022-08-04T14:33:38;5.95;;;2.10;;
73902;SDS011;62238;48.722;9.270;2022-08-04T14:36:05;3.27;;;2.20;;
73902;SDS011;62238;48.722;9.270;2022-08-04T14:38:45;2.65;;;2.00;;
73902;SDS011;62238;48.722;9.270;2022-08-04T14:41:15;4.82;;;2.00;;
73902;SDS011;62238;48.722;9.270;2022-08-04T14:43:43;3.53;;;1.95;;
73902;SDS011;62238;48.722;9.270;2022-08-04T14:46:10;3.97;;;1.90;;
73902;SDS011;62238;48.722;9.270;2022-08-04T14:48:36;5.53;;;2.20;;
73902;SDS011;62238;48.722;9.270;2022-08-04T14:51:02;3.05;;;2.00;;
73902;SDS011;62238;48.722;9.270;2022-08-04T14:53:27;4.90;;;2.10;;
73902;SDS011;62238;48.722;9.270;2022-08-04T14:55:56;3.33;;;2.20;;
73902;SDS011;62238;48.722;9.270;2022-08-04T14:58:32;3.60;;;2.00;;
73902;SDS011;62238;48.722;9.270;2022-08-04T15:00:59;3.67;;;1.63;;
73902;SDS011;62238;48.722;9.270;2022-08-04T15:03:27;3.10;;;2.10;;
73902;SDS011;62238;48.722;9.270;2022-08-04T15:05:54;3.13;;;2.10;;
73902;SDS011;62238;48.722;9.270;2022-08-04T15:08:20;3.30;;;2.00;;
73902;SDS011;62238;48.722;9.270;2022-08-04T15:10:46;6.13;;;2.10;;
73902;SDS011;62238;48.722;9.270;2022-08-04T15:13:11;3.10;;;2.27;;
73902;SDS011;62238;48.722;9.270;2022-08-04T15:15:38;3.53;;;1.85;;
73902;SDS011;62238;48.722;9.270;2022-08-04T15:18:08;2.60;;;1.80;;
73902;SDS011;62238;48.722;9.270;2022-08-04T15:20:34;4.05;;;1.80;;
73902;SDS011;62238;48.722;9.270;2022-08-04T15:23:00;3.10;;;2.20;;
73902;SDS011;62238;48.722;9.270;2022-08-04T15:25:27;3.03;;;1.70;;
73902;SDS011;62238;48.722;9.270;2022-08-04T15:27:56;3.00;;;1.90;;
73902;SDS011;62238;48.722;9.270;2022-08-04T15:30:23;2.90;;;1.93;;
73902;SDS011;62238;48.722;9.270;2022-08-04T15:35:18;4.65;;;2.30;;
73902;SDS011;62238;48.722;9.270;2022-08-04T15:37:51;3.53;;;2.30;;
73902;SDS011;62238;48.722;9.270;2022-08-04T15:40:57;4.40;;;2.17;;
73902;SDS011;62238;48.722;9.270;2022-08-04T15:45:51;3.75;;;2.13;;
73902;SDS011;62238;48.722;9.270;2022-08-04T15:53:24;5.15;;;2.20;;
73902;SDS011;62238;48.722;9.270;2022-08-04T15:56:55;4.20;;;2.00;;
73902;SDS011;62238;48.722;9.270;2022-08-04T15:58:56;3.22;;;2.10;;
73902;SDS011;62238;48.722;9.270;2022-08-04T16:01:22;2.78;;;2.05;;
73902;SDS011;62238;48.722;9.270;2022-08-04T16:03:48;3.07;;;1.90;;
73902;SDS011;62238;48.722;9.270;2022-08-04T16:19:17;3.17;;;1.90;;
73902;SDS011;62238;48.722;9.270;2022-08-04T16:22:03;3.85;;;2.20;;
73902;SDS011;62238;48.722;9.270;2022-08-04T16:24:29;3.75;;;1.90;;
73902;SDS011;62238;48.722;9.270;2022-08-04T16:27:04;4.03;;;2.10;;
73902;SDS011;62238;48.722;9.270;2022-08-04T16:29:36;3.30;;;2.08;;
73902;SDS011;62238;48.722;9.270;2022-08-04T16:32:08;3.10;;;2.10;;
73902;SDS011;62238;48.722;9.270;2022-08-04T16:37:43;4.57;;;2.10;;
73902;SDS011;62238;48.722;9.270;2022-08-04T16:42:48;3.60;;;2.42;;
73902;SDS011;62238;48.722;9.270;2022-08-04T16:45:14;3.47;;;2.05;;
73902;SDS011;62238;48.722;9.270;2022-08-04T16:50:12;3.40;;;2.10;;
73902;SDS011;62238;48.722;9.270;2022-08-04T16:52:48;3.88;;;2.50;;
73902;SDS011;62238;48.722;9.270;2022-08-04T16:55:18;4.82;;;2.13;;
73902;SDS011;62238;48.722;9.270;2022-08-04T16:57:48;3.10;;;2.10;;
73902;SDS011;62238;48.722;9.270;2022-08-04T17:00:14;2.97;;;1.80;;
73902;SDS011;62238;48.722;9.270;2022-08-04T17:02:40;5.03;;;2.20;;
73902;SDS011;62238;48.722;9.270;2022-08-04T17:05:09;3.33;;;2.10;;
73902;SDS011;62238;48.722;9.270;2022-08-04T17:07:51;3.40;;;2.20;;
73902;SDS011;62238;48.722;9.270;2022-08-04T17:10:17;3.80;;;2.00;;
73902;SDS011;62238;48.722;9.270;2022-08-04T17:12:43;3.13;;;2.20;;
73902;SDS011;62238;48.722;9.270;2022-08-04T17:15:21;4.13;;;2.40;;
73902;SDS011;62238;48.722;9.270;2022-08-04T17:17:47;5.15;;;2.33;;
73902;SDS011;62238;48.722;9.270;2022-08-04T17:20:13;4.03;;;2.25;;
73902;SDS011;62238;48.722;9.270;2022-08-04T17:22:38;3.70;;;2.17;;
73902;SDS011;62238;48.722;9.270;2022-08-04T17:25:04;3.53;;;2.30;;
73902;SDS011;62238;48.722;9.270;2022-08-04T17:27:29;4.15;;;2.15;;
73902;SDS011;62238;48.722;9.270;2022-08-04T17:29:55;3.27;;;2.27;;
73902;SDS011;62238;48.722;9.270;2022-08-04T17:32:21;3.33;;;2.00;;
73902;SDS011;62238;48.722;9.270;2022-08-04T17:34:50;3.93;;;1.97;;
73902;SDS011;62238;48.722;9.270;2022-08-04T17:37:17;3.45;;;2.10;;
73902;SDS011;62238;48.722;9.270;2022-08-04T17:39:43;3.67;;;2.10;;
73902;SDS011;62238;48.722;9.270;2022-08-04T17:42:08;3.67;;;2.47;;
73902;SDS011;62238;48.722;9.270;2022-08-04T17:44:34;4.00;;;2.37;;
73902;SDS011;62238;48.722;9.270;2022-08-04T17:47:07;3.33;;;2.20;;
73902;SDS011;62238;48.722;9.270;2022-08-04T17:49:41;3.10;;;2.17;;
73902;SDS011;62238;48.722;9.270;2022-08-04T17:52:06;3.83;;;2.50;;
73902;SDS011;62238;48.722;9.270;2022-08-04T17:54:34;4.32;;;2.10;;
73902;SDS011;62238;48.722;9.270;2022-08-04T17:57:18;4.95;;;2.50;;
73902;SDS011;62238;48.722;9.270;2022-08-04T17:59:44;14.73;;;11.57;;
73902;SDS011;62238;48.722;9.270;2022-08-04T18:02:11;22.17;;;17.90;;
73902;SDS011;62238;48.722;9.270;2022-08-04T18:07:21;24.27;;;19.92;;
73902;SDS011;62238;48.722;9.270;2022-08-04T18:14:47;17.80;;;14.40;;
73902;SDS011;62238;48.722;9.270;2022-08-04T18:17:28;18.53;;;14.67;;
73902;SDS011;62238;48.722;9.270;2022-08-04T18:20:03;15.85;;;12.98;;
73902;SDS011;62238;48.722;9.270;2022-08-04T18:22:30;12.40;;;10.15;;
73902;SDS011;62238;48.722;9.270;2022-08-04T18:24:56;10.73;;;8.00;;
73902;SDS011;62238;48.722;9.270;2022-08-04T18:27:23;10.00;;;7.18;;
73902;SDS011;62238;48.722;9.270;2022-08-04T18:29:51;12.17;;;8.03;;
73902;SDS011;62238;48.722;9.270;2022-08-04T18:32:17;9.33;;;6.23;;
73902;SDS011;62238;48.722;9.270;2022-08-04T18:34:44;10.20;;;7.55;;
73902;SDS011;62238;48.722;9.270;2022-08-04T18:37:09;9.40;;;6.88;;
73902;SDS011;62238;48.722;9.270;2022-08-04T18:39:35;7.50;;;5.83;;
73902;SDS011;62238;48.722;9.270;2022-08-04T18:42:00;8.23;;;6.27;;
73902;SDS011;62238;48.722;9.270;2022-08-04T18:44:25;7.60;;;5.57;;
73902;SDS011;62238;48.722;9.270;2022-08-04T18:46:53;8.85;;;5.78;;
73902;SDS011;62238;48.722;9.270;2022-08-04T18:49:19;8.05;;;5.90;;
73902;SDS011;62238;48.722;9.270;2022-08-04T18:51:48;7.72;;;5.20;;
73902;SDS011;62238;48.722;9.270;2022-08-04T18:54:13;7.87;;;6.00;;
73902;SDS011;62238;48.722;9.270;2022-08-04T18:56:39;7.70;;;5.50;;
73902;SDS011;62238;48.722;9.270;2022-08-04T18:59:04;8.43;;;5.40;;
73902;SDS011;62238;48.722;9.270;2022-08-04T19:01:30;7.90;;;5.10;;
73902;SDS011;62238;48.722;9.270;2022-08-04T19:03:56;7.55;;;4.95;;
73902;SDS011;62238;48.722;9.270;2022-08-04T19:06:22;7.10;;;4.80;;
73902;SDS011;62238;48.722;9.270;2022-08-04T19:08:47;8.20;;;4.50;;
73902;SDS011;62238;48.722;9.270;2022-08-04T19:11:13;6.53;;;4.28;;
73902;SDS011;62238;48.722;9.270;2022-08-04T19:13:38;5.90;;;3.97;;
73902;SDS011;62238;48.722;9.270;2022-08-04T19:16:04;7.22;;;3.15;;
73902;SDS011;62238;48.722;9.270;2022-08-04T19:18:29;7.10;;;3.90;;
73902;SDS011;62238;48.722;9.270;2022-08-04T19:20:56;5.82;;;3.90;;
73902;SDS011;62238;48.722;9.270;2022-08-04T19:23:22;6.93;;;3.70;;
73902;SDS011;62238;48.722;9.270;2022-08-04T19:25:47;6.82;;;3.72;;